createdAt,value
2022-08-28T00:00:43.822Z,89.05
2022-08-28T00:03:13.279Z,87.81
2022-08-28T00:05:41.227Z,87.70
2022-08-28T00:08:13.391Z,88.11
2022-08-28T00:10:41.438Z,88.29
2022-08-28T00:13:15.675Z,88.20
2022-08-28T00:15:42.745Z,88.18
2022-08-28T00:18:09.973Z,88.29
2022-08-28T00:20:37.622Z,88.19
2022-08-28T00:23:07.012Z,88.02
2022-08-28T00:25:34.737Z,87.80
2022-08-28T00:28:09.176Z,86.83
2022-08-28T00:30:46.810Z,86.83
2022-08-28T00:33:25.343Z,86.73
2022-08-28T00:35:52.309Z,86.68
2022-08-28T00:38:20.174Z,87.08
2022-08-28T00:40:50.743Z,88.17
2022-08-28T00:43:35.285Z,88.24
2022-08-28T00:46:04.549Z,88.87
2022-08-28T00:48:31.767Z,89.83
2022-08-28T00:51:17.530Z,90.03
2022-08-28T00:53:45.033Z,90.60
2022-08-28T00:56:13.809Z,90.09
2022-08-28T00:58:43.594Z,90.45
2022-08-28T01:01:11.461Z,90.23
2022-08-28T01:03:38.626Z,90.05
2022-08-28T01:06:07.234Z,89.93
2022-08-28T01:08:36.270Z,90.71
2022-08-28T01:11:07.470Z,90.55
2022-08-28T01:13:36.749Z,90.86
2022-08-28T01:16:05.490Z,90.61
2022-08-28T01:18:34.209Z,90.70
2022-08-28T01:21:30.814Z,90.26
2022-08-28T01:24:02.764Z,90.03
2022-08-28T01:26:30.094Z,90.39
2022-08-28T01:28:59.168Z,90.38
2022-08-28T01:31:28.939Z,90.54
2022-08-28T01:33:56.203Z,89.94
2022-08-28T01:36:23.375Z,89.99
2022-08-28T01:38:56.319Z,90.85
2022-08-28T01:41:23.493Z,90.69
2022-08-28T01:43:50.288Z,90.71
2022-08-28T01:46:17.603Z,91.21
2022-08-28T01:48:44.849Z,91.61
2022-08-28T01:51:13.477Z,91.40
2022-08-28T01:53:41.732Z,91.52
2022-08-28T01:56:15.973Z,90.79
2022-08-28T01:58:43.583Z,91.17
2022-08-28T02:01:16.283Z,91.71
2022-08-28T02:03:43.571Z,92.45
2022-08-28T02:06:11.425Z,92.33
2022-08-28T02:08:39.710Z,92.95
2022-08-28T02:11:07.550Z,93.62
2022-08-28T02:13:39.958Z,94.19
2022-08-28T02:16:09.644Z,94.00
2022-08-28T02:18:38.012Z,93.36
2022-08-28T02:21:06.628Z,93.14
2022-08-28T02:23:33.547Z,94.20
2022-08-28T02:26:00.604Z,94.42
2022-08-28T02:28:27.586Z,94.86
2022-08-28T02:30:54.800Z,94.97
2022-08-28T02:33:21.870Z,95.38
2022-08-28T02:35:49.537Z,95.79
2022-08-28T02:38:17.364Z,95.93
2022-08-28T02:40:45.855Z,95.59
2022-08-28T02:43:13.102Z,95.30
2022-08-28T02:45:40.090Z,94.42
2022-08-28T02:48:11.990Z,95.14
2022-08-28T02:50:44.082Z,94.63
2022-08-28T02:53:11.755Z,94.68
2022-08-28T02:55:38.691Z,95.41
2022-08-28T02:58:06.944Z,95.32
2022-08-28T03:00:34.055Z,95.13
2022-08-28T03:03:00.911Z,95.14
2022-08-28T03:05:27.992Z,94.78
2022-08-28T03:07:55.895Z,95.93
2022-08-28T03:10:23.009Z,95.39
2022-08-28T03:12:50.448Z,94.81
2022-08-28T03:15:18.187Z,94.83
2022-08-28T03:17:46.145Z,94.63
2022-08-28T03:20:15.790Z,95.17
2022-08-28T03:23:01.527Z,95.16
2022-08-28T03:25:28.526Z,95.19
2022-08-28T03:27:56.061Z,95.17
2022-08-28T03:30:23.719Z,95.68
2022-08-28T03:32:50.854Z,95.35
2022-08-28T03:35:17.959Z,95.98
2022-08-28T03:37:45.143Z,95.73
2022-08-28T03:40:12.373Z,96.35
2022-08-28T03:42:39.385Z,95.69
2022-08-28T03:45:11.076Z,95.06
2022-08-28T03:47:39.974Z,94.99
2022-08-28T03:50:08.060Z,94.88
2022-08-28T03:52:38.633Z,95.23
2022-08-28T03:55:09.618Z,94.92
2022-08-28T03:57:36.913Z,95.13
2022-08-28T04:00:07.774Z,94.96
2022-08-28T04:02:39.633Z,95.05
2022-08-28T04:05:08.042Z,95.00
2022-08-28T04:07:35.350Z,94.68
2022-08-28T04:10:02.858Z,95.05
2022-08-28T04:12:29.664Z,94.85
2022-08-28T04:15:01.879Z,94.82
2022-08-28T04:17:28.790Z,94.76
2022-08-28T04:19:56.551Z,94.69
2022-08-28T04:22:23.743Z,93.88
2022-08-28T04:24:50.535Z,93.87
2022-08-28T04:27:17.538Z,94.18
2022-08-28T04:29:44.431Z,93.51
2022-08-28T04:32:11.909Z,93.63
2022-08-28T04:34:38.731Z,92.66
2022-08-28T04:37:06.704Z,92.89
2022-08-28T04:39:34.231Z,93.46
2022-08-28T04:42:01.372Z,92.78
2022-08-28T04:44:28.594Z,92.88
2022-08-28T04:46:55.334Z,93.42
2022-08-28T04:49:25.884Z,93.71
2022-08-28T04:51:52.986Z,93.40
2022-08-28T04:54:20.738Z,93.00
2022-08-28T04:56:47.583Z,93.25
2022-08-28T04:59:14.630Z,93.04
2022-08-28T05:01:42.763Z,93.32
2022-08-28T05:04:11.841Z,92.65
2022-08-28T05:06:47.302Z,93.03
2022-08-28T05:09:17.242Z,93.40
2022-08-28T05:11:44.817Z,93.56
2022-08-28T05:14:15.972Z,93.52
2022-08-28T05:16:49.024Z,93.83
2022-08-28T05:19:17.684Z,93.23
2022-08-28T05:21:44.894Z,92.85
2022-08-28T05:24:12.784Z,93.72
2022-08-28T05:26:41.195Z,93.56
2022-08-28T05:29:08.547Z,93.42
2022-08-28T05:31:35.726Z,93.53
2022-08-28T05:34:04.605Z,93.51
2022-08-28T05:36:36.695Z,93.70
2022-08-28T05:39:06.429Z,93.34
2022-08-28T05:41:33.486Z,93.04
2022-08-28T05:44:02.924Z,93.39
2022-08-28T05:46:30.317Z,94.43
2022-08-28T05:48:57.903Z,94.07
2022-08-28T05:51:26.768Z,94.11
2022-08-28T05:53:55.983Z,93.52
2022-08-28T05:56:26.063Z,93.60
2022-08-28T05:58:53.142Z,93.32
2022-08-28T06:01:28.737Z,93.39
2022-08-28T06:04:14.721Z,93.75
2022-08-28T06:06:42.522Z,93.25
2022-08-28T06:09:20.036Z,92.86
2022-08-28T06:11:47.701Z,93.28
2022-08-28T06:14:18.158Z,93.37
2022-08-28T06:16:47.958Z,92.96
2022-08-28T06:19:15.280Z,92.85
2022-08-28T06:21:43.479Z,92.81
2022-08-28T06:24:12.159Z,93.42
2022-08-28T06:26:39.458Z,93.57
2022-08-28T06:29:09.615Z,93.59
2022-08-28T06:31:37.332Z,92.41
2022-08-28T06:34:04.963Z,92.23
2022-08-28T06:36:34.927Z,92.16
2022-08-28T06:39:04.166Z,92.66
2022-08-28T06:41:32.517Z,93.08
2022-08-28T06:44:00.126Z,93.67
2022-08-28T06:46:29.348Z,93.51
2022-08-28T06:48:56.365Z,93.20
2022-08-28T06:51:24.892Z,93.77
2022-08-28T06:53:52.391Z,94.58
2022-08-28T06:56:25.549Z,94.72
2022-08-28T06:58:56.615Z,93.92
2022-08-28T07:01:30.258Z,94.53
2022-08-28T07:04:01.313Z,94.34
2022-08-28T07:06:32.635Z,93.93
2022-08-28T07:08:59.841Z,93.56
2022-08-28T07:11:31.544Z,92.91
2022-08-28T07:13:59.265Z,92.96
2022-08-28T07:16:29.789Z,92.87
2022-08-28T07:18:57.287Z,92.39
2022-08-28T07:21:24.381Z,92.01
2022-08-28T07:23:51.480Z,91.85
2022-08-28T07:26:22.775Z,91.61
2022-08-28T07:28:51.295Z,91.45
2022-08-28T07:31:24.283Z,91.15
2022-08-28T07:33:54.016Z,91.06
2022-08-28T07:36:28.902Z,91.03
2022-08-28T07:38:59.010Z,91.28
2022-08-28T07:41:32.030Z,90.96
2022-08-28T07:44:17.979Z,90.91
2022-08-28T07:46:45.742Z,91.26
2022-08-28T07:49:17.187Z,90.90
2022-08-28T07:51:46.597Z,90.60
2022-08-28T07:54:17.802Z,90.26
2022-08-28T07:56:46.500Z,90.24
2022-08-28T07:59:16.892Z,90.30
2022-08-28T08:01:49.259Z,90.20
2022-08-28T08:04:16.764Z,89.38
2022-08-28T08:06:44.842Z,89.45
2022-08-28T08:09:14.656Z,89.63
2022-08-28T08:11:42.546Z,88.93
2022-08-28T08:14:10.559Z,88.55
2022-08-28T08:16:40.522Z,89.25
2022-08-28T08:19:14.113Z,88.52
2022-08-28T08:21:43.642Z,88.78
2022-08-28T08:24:12.211Z,88.63
2022-08-28T08:27:00.344Z,88.50
2022-08-28T08:29:35.682Z,88.47
2022-08-28T08:32:07.166Z,88.90
2022-08-28T08:34:36.726Z,88.35
2022-08-28T08:37:05.680Z,88.14
2022-08-28T08:39:34.309Z,88.13
2022-08-28T08:42:03.956Z,87.35
2022-08-28T08:44:38.903Z,87.72
2022-08-28T08:47:16.895Z,87.84
2022-08-28T08:50:09.959Z,87.62
2022-08-28T08:52:56.588Z,87.28
2022-08-28T08:55:35.162Z,86.95
2022-08-28T08:58:13.138Z,86.94
2022-08-28T09:01:18.979Z,86.85
2022-08-28T09:04:13.393Z,86.45
2022-08-28T09:06:50.625Z,86.02
2022-08-28T09:09:26.699Z,86.42
2022-08-28T09:12:15.003Z,85.34
2022-08-28T09:15:11.428Z,85.34
2022-08-28T09:17:48.113Z,85.12
2022-08-28T09:20:30.214Z,85.16
2022-08-28T09:23:00.159Z,85.20
2022-08-28T09:26:04.197Z,85.27
2022-08-28T09:28:36.988Z,84.58
2022-08-28T09:31:13.678Z,84.21
2022-08-28T09:33:45.339Z,84.38
2022-08-28T09:36:24.230Z,83.91
2022-08-28T09:39:10.461Z,83.53
2022-08-28T09:42:03.973Z,83.40
2022-08-28T09:44:31.489Z,82.78
2022-08-28T09:46:59.288Z,82.88
2022-08-28T09:49:30.504Z,83.28
2022-08-28T09:52:01.955Z,83.30
2022-08-28T09:54:36.533Z,83.72
2022-08-28T09:57:04.053Z,83.25
2022-08-28T09:59:31.098Z,81.65
2022-08-28T10:02:23.406Z,81.49
2022-08-28T10:05:02.468Z,80.82
2022-08-28T10:07:41.487Z,80.25
2022-08-28T10:10:42.135Z,79.79
2022-08-28T10:13:21.083Z,78.91
2022-08-28T10:16:29.057Z,77.65
2022-08-28T10:19:10.951Z,77.40
2022-08-28T10:21:43.265Z,77.14
2022-08-28T10:24:37.140Z,76.69
2022-08-28T10:27:31.884Z,76.84
2022-08-28T10:30:15.983Z,76.80
2022-08-28T10:33:24.459Z,76.21
2022-08-28T10:36:23.174Z,74.90
2022-08-28T10:39:03.430Z,75.22
2022-08-28T10:41:43.600Z,74.54
2022-08-28T10:44:14.019Z,73.70
2022-08-28T10:46:46.346Z,73.10
2022-08-28T10:49:31.228Z,71.89
2022-08-28T10:52:16.244Z,70.54
2022-08-28T10:55:04.104Z,69.66
2022-08-28T10:57:39.434Z,69.08
2022-08-28T11:00:30.231Z,68.43
2022-08-28T11:03:17.794Z,69.15
2022-08-28T11:06:01.842Z,69.10
2022-08-28T11:08:32.549Z,67.87
2022-08-28T11:11:02.062Z,67.55
2022-08-28T11:13:59.867Z,67.17
2022-08-28T11:16:30.372Z,66.50
2022-08-28T11:19:17.757Z,67.07
2022-08-28T11:21:47.998Z,65.97
2022-08-28T11:24:26.615Z,65.15
2022-08-28T11:27:21.855Z,65.23
2022-08-28T11:30:06.688Z,64.78
2022-08-28T11:32:52.201Z,64.62
2022-08-28T11:35:44.874Z,64.74
2022-08-28T11:38:32.714Z,65.60
2022-08-28T11:41:14.820Z,64.89
2022-08-28T11:43:44.945Z,64.95
2022-08-28T11:46:25.189Z,64.05
2022-08-28T11:48:59.042Z,64.90
2022-08-28T11:51:31.841Z,64.16
2022-08-28T11:54:04.869Z,64.49
2022-08-28T11:56:40.035Z,63.17
2022-08-28T11:59:39.142Z,62.15
2022-08-28T12:02:35.797Z,62.02
2022-08-28T12:05:11.846Z,61.47
2022-08-28T12:07:41.671Z,62.71
2022-08-28T12:10:20.933Z,62.25
2022-08-28T12:12:47.732Z,61.60
2022-08-28T12:15:33.718Z,61.08
2022-08-28T12:18:01.852Z,61.34
2022-08-28T12:21:19.453Z,61.58
2022-08-28T12:24:16.252Z,59.72
2022-08-28T12:26:49.836Z,59.84
2022-08-28T12:29:27.463Z,60.94
2022-08-28T12:32:16.322Z,59.97
2022-08-28T12:34:50.221Z,59.82
2022-08-28T12:37:39.485Z,59.90
2022-08-28T12:40:31.950Z,59.57
2022-08-28T12:43:05.492Z,58.72
2022-08-28T12:45:42.951Z,59.44
2022-08-28T12:48:25.304Z,59.85
2022-08-28T12:51:03.469Z,58.49
2022-08-28T12:53:43.137Z,57.79
2022-08-28T12:56:15.028Z,59.01
2022-08-28T12:58:42.872Z,58.71
2022-08-28T13:01:12.423Z,59.11
2022-08-28T13:03:52.716Z,59.65
2022-08-28T13:06:27.011Z,58.92
2022-08-28T13:09:17.547Z,59.41
2022-08-28T13:11:50.435Z,59.66
2022-08-28T13:14:36.375Z,59.96
2022-08-28T13:17:03.444Z,60.35
2022-08-28T13:19:34.868Z,59.56
2022-08-28T13:22:04.875Z,59.02
2022-08-28T13:24:31.984Z,59.58
2022-08-28T13:27:18.070Z,58.93
2022-08-28T13:30:23.338Z,58.85
2022-08-28T13:33:02.748Z,58.41
2022-08-28T13:35:36.151Z,59.04
2022-08-28T13:38:16.566Z,58.58
2022-08-28T13:40:58.059Z,58.47
2022-08-28T13:43:29.090Z,59.47
2022-08-28T13:45:56.334Z,59.77
2022-08-28T13:48:27.770Z,59.19
2022-08-28T13:51:10.365Z,59.90
2022-08-28T13:53:38.676Z,58.66
2022-08-28T13:56:06.726Z,59.08
2022-08-28T13:58:33.683Z,59.99
2022-08-28T14:01:01.514Z,60.01
2022-08-28T14:03:41.414Z,61.11
2022-08-28T14:06:14.380Z,61.36
2022-08-28T14:08:43.919Z,60.09
2022-08-28T14:11:12.925Z,60.14
2022-08-28T14:13:46.913Z,60.21
2022-08-28T14:16:26.036Z,59.58
2022-08-28T14:18:54.052Z,59.65
2022-08-28T14:21:24.586Z,59.62
2022-08-28T14:23:51.760Z,59.25
2022-08-28T14:26:18.935Z,59.30
2022-08-28T14:28:45.720Z,58.60
2022-08-28T14:31:14.818Z,57.99
2022-08-28T14:33:45.040Z,58.18
2022-08-28T14:36:22.634Z,57.23
2022-08-28T14:38:53.893Z,57.54
2022-08-28T14:41:22.588Z,56.79
2022-08-28T14:43:49.763Z,56.13
2022-08-28T14:46:18.850Z,56.75
2022-08-28T14:48:45.785Z,56.63
2022-08-28T14:51:12.722Z,56.80
2022-08-28T14:53:40.132Z,57.62
2022-08-28T14:56:08.832Z,58.30
2022-08-28T14:58:36.377Z,58.81
2022-08-28T15:01:05.171Z,59.06
2022-08-28T15:03:32.473Z,58.88
2022-08-28T15:06:07.848Z,57.92
2022-08-28T15:08:35.812Z,58.36
2022-08-28T15:11:18.492Z,58.71
2022-08-28T15:13:47.136Z,58.70
2022-08-28T15:16:19.085Z,58.66
2022-08-28T15:18:47.425Z,58.77
2022-08-28T15:21:19.512Z,59.22
2022-08-28T15:23:46.563Z,58.98
2022-08-28T15:26:15.557Z,58.69
2022-08-28T15:28:42.638Z,58.60
2022-08-28T15:31:09.467Z,58.54
2022-08-28T15:33:36.386Z,58.15
2022-08-28T15:36:03.983Z,58.25
2022-08-28T15:38:50.746Z,58.64
2022-08-28T15:41:26.696Z,58.60
2022-08-28T15:43:55.885Z,58.31
2022-08-28T15:46:24.096Z,58.39
2022-08-28T15:48:54.379Z,58.74
2022-08-28T15:51:25.699Z,59.52
2022-08-28T15:53:53.010Z,59.00
2022-08-28T15:56:20.352Z,59.01
2022-08-28T15:58:47.314Z,59.70
2022-08-28T16:01:14.813Z,59.37
2022-08-28T16:03:41.985Z,59.63
2022-08-28T16:06:17.395Z,59.25
2022-08-28T16:08:45.050Z,58.65
2022-08-28T16:11:17.100Z,59.07
2022-08-28T16:13:43.960Z,59.11
2022-08-28T16:16:11.321Z,59.01
2022-08-28T16:18:38.598Z,59.23
2022-08-28T16:21:06.747Z,59.84
2022-08-28T16:23:35.489Z,60.00
2022-08-28T16:26:04.143Z,58.53
2022-08-28T16:28:32.791Z,58.44
2022-08-28T16:31:05.062Z,59.44
2022-08-28T16:33:35.718Z,60.02
2022-08-28T16:36:11.208Z,60.32
2022-08-28T16:38:39.417Z,59.67
2022-08-28T16:41:15.093Z,57.00
2022-08-28T16:43:42.678Z,57.79
2022-08-28T16:46:17.086Z,58.71
2022-08-28T16:48:45.054Z,59.61
2022-08-28T16:51:12.757Z,59.60
2022-08-28T16:53:43.134Z,60.30
2022-08-28T16:56:11.437Z,60.50
2022-08-28T16:58:39.592Z,61.20
2022-08-28T17:01:08.247Z,61.39
2022-08-28T17:03:38.665Z,60.92
2022-08-28T17:06:16.657Z,61.35
2022-08-28T17:08:44.473Z,62.36
2022-08-28T17:11:12.265Z,62.06
2022-08-28T17:13:39.829Z,61.89
2022-08-28T17:16:07.293Z,62.03
2022-08-28T17:18:35.252Z,62.04
2022-08-28T17:21:20.267Z,62.08
2022-08-28T17:23:47.615Z,61.77
2022-08-28T17:26:15.477Z,61.89
2022-08-28T17:28:43.868Z,61.86
2022-08-28T17:31:11.732Z,62.30
2022-08-28T17:33:43.223Z,62.59
2022-08-28T17:36:21.266Z,63.11
2022-08-28T17:38:59.579Z,63.20
2022-08-28T17:41:26.715Z,62.87
2022-08-28T17:43:53.458Z,62.96
2022-08-28T17:46:20.654Z,62.56
2022-08-28T17:48:54.294Z,62.91
2022-08-28T17:51:33.835Z,62.44
2022-08-28T17:54:18.003Z,62.68
2022-08-28T17:56:45.216Z,62.56
2022-08-28T17:59:13.502Z,62.23
2022-08-28T18:01:41.756Z,62.53
2022-08-28T18:04:09.299Z,63.16
2022-08-28T18:06:36.872Z,63.08
2022-08-28T18:09:05.933Z,62.64
2022-08-28T18:11:33.492Z,63.29
2022-08-28T18:14:00.961Z,62.84
2022-08-28T18:16:31.336Z,62.94
2022-08-28T18:19:02.409Z,63.42
2022-08-28T18:21:29.672Z,63.40
2022-08-28T18:23:57.215Z,63.67
2022-08-28T18:26:24.287Z,63.82
2022-08-28T18:28:51.952Z,64.01
2022-08-28T18:31:19.174Z,64.02
2022-08-28T18:33:46.887Z,64.06
2022-08-28T18:36:16.115Z,64.03
2022-08-28T18:38:44.240Z,63.86
2022-08-28T18:41:12.241Z,64.28
2022-08-28T18:43:39.709Z,64.39
2022-08-28T18:46:09.362Z,64.62
2022-08-28T18:48:37.638Z,64.43
2022-08-28T18:51:10.009Z,64.84
2022-08-28T18:53:37.761Z,65.13
2022-08-28T18:56:06.330Z,65.06
2022-08-28T18:58:33.499Z,65.10
2022-08-28T19:01:02.426Z,64.60
2022-08-28T19:03:30.256Z,64.67
2022-08-28T19:05:57.502Z,64.35
2022-08-28T19:08:25.363Z,64.26
2022-08-28T19:10:53.114Z,64.12
2022-08-28T19:13:20.309Z,64.27
2022-08-28T19:15:52.936Z,64.00
2022-08-28T19:18:19.992Z,64.16
2022-08-28T19:20:47.459Z,64.29
2022-08-28T19:23:17.643Z,64.77
2022-08-28T19:25:45.920Z,65.18
2022-08-28T19:28:12.969Z,65.33
2022-08-28T19:30:39.995Z,65.75
2022-08-28T19:33:07.108Z,65.58
2022-08-28T19:35:34.001Z,64.61
2022-08-28T19:38:01.683Z,65.03
2022-08-28T19:40:29.236Z,65.82
2022-08-28T19:42:56.484Z,66.02
2022-08-28T19:45:23.347Z,66.63
2022-08-28T19:47:50.495Z,67.23
2022-08-28T19:50:17.675Z,67.91
2022-08-28T19:52:46.669Z,68.54
2022-08-28T19:55:32.865Z,68.95
2022-08-28T19:57:59.700Z,69.61
2022-08-28T20:00:32.025Z,69.32
2022-08-28T20:02:59.602Z,69.58
2022-08-28T20:05:26.700Z,69.96
2022-08-28T20:07:53.468Z,69.90
2022-08-28T20:10:21.647Z,69.78
2022-08-28T20:12:48.978Z,70.04
2022-08-28T20:15:18.035Z,70.07
2022-08-28T20:17:50.016Z,70.03
2022-08-28T20:20:25.584Z,71.06
2022-08-28T20:22:54.772Z,71.24
2022-08-28T20:25:23.870Z,71.66
2022-08-28T20:27:50.679Z,71.93
2022-08-28T20:30:18.163Z,72.05
2022-08-28T20:32:45.426Z,72.07
2022-08-28T20:35:13.294Z,72.23
2022-08-28T20:37:44.917Z,71.52
2022-08-28T20:40:18.322Z,72.34
2022-08-28T20:42:46.573Z,72.50
2022-08-28T20:45:15.257Z,72.11
2022-08-28T20:47:43.013Z,72.21
2022-08-28T20:50:10.141Z,72.25
2022-08-28T20:52:37.602Z,71.97
2022-08-28T20:55:07.670Z,72.57
2022-08-28T20:57:35.346Z,72.37
2022-08-28T21:00:05.737Z,73.25
2022-08-28T21:02:33.433Z,72.97
2022-08-28T21:05:00.868Z,73.00
2022-08-28T21:07:28.591Z,73.11
2022-08-28T21:10:05.567Z,73.37
2022-08-28T21:12:39.308Z,72.69
2022-08-28T21:15:08.928Z,73.20
2022-08-28T21:17:36.069Z,73.33
2022-08-28T21:20:08.625Z,73.53
2022-08-28T21:22:36.022Z,73.72
2022-08-28T21:25:08.784Z,74.58
2022-08-28T21:27:35.766Z,73.55
2022-08-28T21:30:03.396Z,73.83
2022-08-28T21:32:32.726Z,74.26
2022-08-28T21:35:02.431Z,74.01
2022-08-28T21:37:29.534Z,74.19
2022-08-28T21:39:59.329Z,73.97
2022-08-28T21:42:26.891Z,74.19
2022-08-28T21:44:54.713Z,74.86
2022-08-28T21:47:23.430Z,74.61
2022-08-28T21:49:52.112Z,75.21
2022-08-28T21:52:20.768Z,75.27
2022-08-28T21:54:48.256Z,75.55
2022-08-28T21:57:16.810Z,75.39
2022-08-28T21:59:43.609Z,75.44
2022-08-28T22:02:10.726Z,75.54
2022-08-28T22:04:37.717Z,75.59
2022-08-28T22:07:04.611Z,75.35
2022-08-28T22:09:31.657Z,75.30
2022-08-28T22:11:58.411Z,74.72
2022-08-28T22:14:25.519Z,74.95
2022-08-28T22:16:52.456Z,75.42
2022-08-28T22:19:19.971Z,74.01
2022-08-28T22:22:05.118Z,74.12
2022-08-28T22:24:32.361Z,74.63
2022-08-28T22:26:59.364Z,75.03
2022-08-28T22:29:26.358Z,75.91
2022-08-28T22:31:53.247Z,76.24
2022-08-28T22:34:20.245Z,76.25
2022-08-28T22:36:47.345Z,75.18
2022-08-28T22:39:14.225Z,76.19
2022-08-28T22:41:42.286Z,76.18
2022-08-28T22:44:10.010Z,76.27
2022-08-28T22:46:37.111Z,76.46
2022-08-28T22:49:04.383Z,77.02
2022-08-28T22:51:34.589Z,77.43
2022-08-28T22:54:01.707Z,78.15
2022-08-28T22:56:28.876Z,78.13
2022-08-28T22:58:55.775Z,77.43
2022-08-28T23:01:24.823Z,77.49
2022-08-28T23:03:52.010Z,77.75
2022-08-28T23:06:20.611Z,77.26
2022-08-28T23:08:47.789Z,77.40
2022-08-28T23:11:15.193Z,77.63
2022-08-28T23:13:42.220Z,77.88
2022-08-28T23:16:09.806Z,77.81
2022-08-28T23:19:04.228Z,77.87
2022-08-28T23:21:26.626Z,78.09
2022-08-28T23:23:55.205Z,78.67
2022-08-28T23:26:22.522Z,78.01
2022-08-28T23:28:49.746Z,78.04
2022-08-28T23:31:16.864Z,78.18
2022-08-28T23:33:44.133Z,78.35
2022-08-28T23:36:11.795Z,78.49
2022-08-28T23:38:40.792Z,79.11
2022-08-28T23:41:11.297Z,78.87
2022-08-28T23:43:38.474Z,78.71
2022-08-28T23:46:06.627Z,77.96
2022-08-28T23:48:35.233Z,77.60
2022-08-28T23:51:02.718Z,77.44
2022-08-28T23:53:29.541Z,77.86
2022-08-28T23:55:59.655Z,78.32
2022-08-28T23:58:31.612Z,78.61
